createdAt,value
2019-06-18T00:01:31.129Z,99.90
2019-06-18T00:04:10.877Z,99.90
2019-06-18T00:06:41.250Z,99.90
2019-06-18T00:09:11.398Z,99.90
2019-06-18T00:11:41.471Z,99.90
2019-06-18T00:14:11.570Z,99.90
2019-06-18T00:16:42.611Z,99.90
2019-06-18T00:19:21.335Z,99.90
2019-06-18T00:21:52.366Z,99.90
2019-06-18T00:24:22.496Z,99.90
2019-06-18T00:26:52.581Z,99.90
2019-06-18T00:29:31.464Z,99.90
2019-06-18T00:32:01.771Z,99.90
2019-06-18T00:34:34.587Z,99.90
2019-06-18T00:37:04.667Z,99.90
2019-06-18T00:39:34.761Z,99.90
2019-06-18T00:42:09.410Z,99.90
2019-06-18T00:44:41.470Z,99.90
2019-06-18T00:47:12.520Z,99.90
2019-06-18T00:49:42.595Z,99.90
2019-06-18T00:52:13.658Z,99.90
2019-06-18T00:54:43.772Z,99.90
2019-06-18T00:57:17.579Z,99.90
2019-06-18T00:59:48.630Z,99.90
2019-06-18T01:02:19.594Z,99.90
2019-06-18T01:04:49.686Z,99.90
2019-06-18T01:07:27.356Z,99.90
2019-06-18T01:09:57.867Z,99.90
2019-06-18T01:12:28.026Z,99.90
2019-06-18T01:14:58.110Z,99.90
2019-06-18T01:17:29.182Z,99.90
2019-06-18T01:20:08.070Z,99.90
2019-06-18T01:22:43.959Z,99.90
2019-06-18T01:25:17.135Z,99.90
2019-06-18T01:27:53.044Z,99.90
2019-06-18T01:30:23.302Z,99.90
2019-06-18T01:33:04.031Z,99.90
2019-06-18T01:35:46.206Z,99.90
2019-06-18T01:38:22.532Z,99.90
2019-06-18T01:40:52.701Z,99.90
2019-06-18T01:43:23.074Z,99.90
2019-06-18T01:46:02.754Z,99.90
2019-06-18T01:48:34.822Z,99.90
2019-06-18T01:51:22.974Z,99.90
2019-06-18T01:53:56.524Z,99.90
2019-06-18T01:56:27.510Z,99.90
2019-06-18T01:59:02.557Z,99.90
2019-06-18T02:01:32.622Z,99.90
2019-06-18T02:04:03.490Z,99.90
2019-06-18T02:06:34.526Z,99.90
2019-06-18T02:09:07.833Z,99.90
2019-06-18T02:11:38.874Z,99.90
2019-06-18T02:14:08.946Z,99.90
2019-06-18T02:16:50.920Z,99.90
2019-06-18T02:19:13.277Z,99.90
2019-06-18T02:21:44.222Z,99.90
2019-06-18T02:24:14.302Z,99.90
2019-06-18T02:26:44.390Z,99.90
2019-06-18T02:29:14.741Z,99.90
2019-06-18T02:31:44.951Z,99.90
2019-06-18T02:34:14.998Z,99.90
2019-06-18T02:36:45.148Z,99.90
2019-06-18T02:39:15.234Z,99.90
2019-06-18T02:41:45.538Z,99.90
2019-06-18T02:44:16.175Z,99.90
2019-06-18T02:46:46.318Z,99.90
2019-06-18T02:49:32.400Z,99.90
2019-06-18T02:52:03.495Z,99.90
2019-06-18T02:54:34.134Z,99.90
2019-06-18T02:57:13.533Z,99.90
2019-06-18T02:59:44.322Z,99.90
2019-06-18T03:02:23.850Z,99.90
2019-06-18T03:04:53.943Z,99.90
2019-06-18T03:07:24.038Z,99.90
2019-06-18T03:09:54.108Z,99.90
2019-06-18T03:12:24.362Z,99.90
2019-06-18T03:14:54.441Z,99.90
2019-06-18T03:17:32.291Z,99.90
2019-06-18T03:19:56.386Z,99.90
2019-06-18T03:22:27.480Z,99.90
2019-06-18T03:24:57.551Z,99.90
2019-06-18T03:27:27.657Z,99.90
2019-06-18T03:29:57.727Z,99.90
2019-06-18T03:32:34.738Z,99.90
2019-06-18T03:35:03.838Z,99.90
2019-06-18T03:37:35.055Z,99.90
2019-06-18T03:40:08.281Z,99.90
2019-06-18T03:42:44.271Z,99.90
2019-06-18T03:45:17.535Z,99.90
2019-06-18T03:47:50.008Z,99.90
2019-06-18T03:50:25.213Z,99.90
2019-06-18T03:52:58.295Z,99.90
2019-06-18T03:55:28.384Z,99.90
2019-06-18T03:57:58.544Z,99.90
2019-06-18T04:00:33.659Z,99.90
2019-06-18T04:03:03.801Z,99.90
2019-06-18T04:05:33.885Z,99.90
2019-06-18T04:08:12.444Z,99.90
2019-06-18T04:10:47.025Z,99.90
2019-06-18T04:13:18.513Z,99.90
2019-06-18T04:15:48.603Z,99.90
2019-06-18T04:18:18.666Z,99.90
2019-06-18T04:20:48.745Z,99.90
2019-06-18T04:23:22.398Z,99.90
2019-06-18T04:25:53.306Z,99.90
2019-06-18T04:28:23.330Z,99.90
2019-06-18T04:30:53.718Z,99.90
2019-06-18T04:33:23.887Z,99.90
2019-06-18T04:35:54.979Z,99.90
2019-06-18T04:38:25.067Z,99.90
2019-06-18T04:41:07.358Z,99.90
2019-06-18T04:43:40.386Z,99.90
2019-06-18T04:46:13.091Z,99.90
2019-06-18T04:48:44.327Z,99.90
2019-06-18T04:51:22.779Z,99.90
2019-06-18T04:53:53.651Z,99.90
2019-06-18T04:56:23.896Z,99.90
2019-06-18T04:59:03.469Z,99.90
2019-06-18T05:01:33.556Z,99.90
2019-06-18T05:04:04.093Z,99.90
2019-06-18T05:06:34.259Z,99.90
2019-06-18T05:09:06.784Z,99.90
2019-06-18T05:11:37.131Z,99.90
2019-06-18T05:14:07.212Z,99.90
2019-06-18T05:16:37.328Z,99.90
2019-06-18T05:19:09.380Z,99.90
2019-06-18T05:21:42.761Z,99.90
2019-06-18T05:24:18.031Z,99.90
2019-06-18T05:27:13.041Z,99.90
2019-06-18T05:29:48.969Z,99.90
2019-06-18T05:32:32.601Z,99.90
2019-06-18T05:35:03.680Z,99.90
2019-06-18T05:37:35.019Z,99.90
2019-06-18T05:40:13.611Z,99.90
2019-06-18T05:42:48.751Z,99.90
2019-06-18T05:45:22.956Z,99.90
2019-06-18T05:47:54.943Z,99.90
2019-06-18T05:50:27.219Z,99.90
2019-06-18T05:52:57.405Z,99.90
2019-06-18T05:55:27.552Z,99.90
2019-06-18T05:58:02.288Z,99.90
2019-06-18T06:00:34.007Z,99.90
2019-06-18T06:03:03.602Z,99.90
2019-06-18T06:05:33.679Z,99.90
2019-06-18T06:08:03.775Z,99.90
2019-06-18T06:10:34.531Z,99.90
2019-06-18T06:13:04.633Z,99.10
2019-06-18T06:15:34.695Z,97.80
2019-06-18T06:18:06.205Z,97.60
2019-06-18T06:20:43.003Z,98.20
2019-06-18T06:23:14.327Z,96.30
2019-06-18T06:25:44.412Z,95.60
2019-06-18T06:28:14.485Z,95.20
2019-06-18T06:30:45.145Z,94.30
2019-06-18T06:33:15.238Z,93.10
2019-06-18T06:35:45.295Z,92.00
2019-06-18T06:38:16.356Z,92.10
2019-06-18T06:40:46.467Z,91.50
2019-06-18T06:43:16.548Z,91.40
2019-06-18T06:45:46.629Z,91.50
2019-06-18T06:48:18.708Z,91.10
2019-06-18T06:50:48.799Z,90.70
2019-06-18T06:53:23.243Z,87.50
2019-06-18T06:55:53.184Z,88.90
2019-06-18T06:58:29.572Z,88.30
2019-06-18T07:00:57.179Z,84.00
2019-06-18T07:03:27.263Z,83.80
2019-06-18T07:05:57.363Z,82.70
2019-06-18T07:08:28.435Z,83.80
2019-06-18T07:10:58.533Z,81.40
2019-06-18T07:13:31.210Z,77.10
2019-06-18T07:16:03.432Z,78.10
2019-06-18T07:18:33.679Z,78.50
2019-06-18T07:21:03.927Z,77.40
2019-06-18T07:23:34.020Z,76.50
2019-06-18T07:26:07.062Z,74.30
2019-06-18T07:28:37.144Z,74.50
2019-06-18T07:31:19.209Z,70.80
2019-06-18T07:33:49.294Z,71.20
2019-06-18T07:36:19.382Z,68.50
2019-06-18T07:38:49.467Z,67.00
2019-06-18T07:41:22.550Z,68.00
2019-06-18T07:43:53.435Z,68.80
2019-06-18T07:46:23.666Z,68.10
2019-06-18T07:48:53.753Z,68.40
2019-06-18T07:51:23.865Z,69.60
2019-06-18T07:53:54.835Z,66.20
2019-06-18T07:56:26.832Z,68.90
2019-06-18T07:58:56.693Z,67.20
2019-06-18T08:01:26.787Z,66.10
2019-06-18T08:03:56.871Z,65.80
2019-06-18T08:06:26.979Z,65.40
2019-06-18T08:08:57.127Z,65.00
2019-06-18T08:11:27.211Z,65.70
2019-06-18T08:13:58.251Z,64.70
2019-06-18T08:16:28.492Z,65.10
2019-06-18T08:18:58.547Z,66.10
2019-06-18T08:21:28.643Z,65.10
2019-06-18T08:23:58.958Z,62.30
2019-06-18T08:26:38.193Z,62.60
2019-06-18T08:29:08.287Z,59.70
2019-06-18T08:31:53.194Z,57.40
2019-06-18T08:34:12.763Z,57.40
2019-06-18T08:36:43.728Z,56.90
2019-06-18T08:39:14.146Z,57.60
2019-06-18T08:41:44.592Z,58.80
2019-06-18T08:44:14.679Z,56.20
2019-06-18T08:46:44.767Z,56.80
2019-06-18T08:49:16.859Z,56.70
2019-06-18T08:51:46.935Z,56.50
2019-06-18T08:54:17.016Z,54.30
2019-06-18T08:56:47.099Z,54.40
2019-06-18T08:59:17.203Z,56.30
2019-06-18T09:01:47.285Z,55.70
2019-06-18T09:04:17.419Z,56.20
2019-06-18T09:06:47.718Z,55.80
2019-06-18T09:09:17.823Z,55.10
2019-06-18T09:11:48.012Z,53.50
2019-06-18T09:14:23.604Z,53.70
2019-06-18T09:16:53.943Z,51.60
2019-06-18T09:19:24.011Z,54.00
2019-06-18T09:21:54.128Z,52.10
2019-06-18T09:24:24.202Z,53.50
2019-06-18T09:26:55.267Z,52.70
2019-06-18T09:29:27.321Z,51.90
2019-06-18T09:32:03.716Z,48.30
2019-06-18T09:34:33.827Z,48.60
2019-06-18T09:37:03.973Z,50.60
2019-06-18T09:39:34.152Z,50.50
2019-06-18T09:42:04.666Z,51.50
2019-06-18T09:44:34.879Z,49.90
2019-06-18T09:47:05.085Z,48.70
2019-06-18T09:49:36.116Z,46.50
2019-06-18T09:52:06.184Z,48.60
2019-06-18T09:54:36.281Z,48.30
2019-06-18T09:57:06.355Z,48.50
2019-06-18T09:59:37.252Z,46.70
2019-06-18T10:02:08.047Z,45.60
2019-06-18T10:04:38.132Z,45.40
2019-06-18T10:07:08.327Z,47.70
2019-06-18T10:09:39.356Z,48.90
2019-06-18T10:12:22.915Z,47.60
2019-06-18T10:14:58.963Z,46.30
2019-06-18T10:17:32.785Z,43.80
2019-06-18T10:20:07.431Z,44.50
2019-06-18T10:22:38.365Z,46.30
2019-06-18T10:25:12.507Z,48.80
2019-06-18T10:27:42.771Z,47.20
2019-06-18T10:30:14.283Z,46.20
2019-06-18T10:32:45.473Z,44.00
2019-06-18T10:35:23.681Z,42.90
2019-06-18T10:37:53.889Z,42.40
2019-06-18T10:40:25.885Z,43.40
2019-06-18T10:42:55.988Z,45.80
2019-06-18T10:45:26.081Z,44.70
2019-06-18T10:48:03.730Z,43.00
2019-06-18T10:50:37.076Z,43.30
2019-06-18T10:53:12.858Z,43.00
2019-06-18T10:55:44.998Z,42.60
2019-06-18T10:58:15.313Z,43.60
2019-06-18T11:00:48.074Z,42.40
2019-06-18T11:03:18.395Z,41.50
2019-06-18T11:05:53.145Z,42.20
2019-06-18T11:08:29.574Z,41.90
2019-06-18T11:10:59.679Z,40.80
2019-06-18T11:13:33.384Z,40.00
2019-06-18T11:16:05.602Z,40.30
2019-06-18T11:18:47.028Z,38.40
2019-06-18T11:21:17.122Z,37.90
2019-06-18T11:23:47.446Z,38.30
2019-06-18T11:26:17.589Z,39.40
2019-06-18T11:28:49.628Z,38.50
2019-06-18T11:31:19.666Z,38.70
2019-06-18T11:33:53.368Z,39.70
2019-06-18T11:36:23.078Z,42.30
2019-06-18T11:38:53.336Z,42.60
2019-06-18T11:41:27.387Z,40.80
2019-06-18T11:44:03.430Z,39.50
2019-06-18T11:46:33.776Z,37.90
2019-06-18T11:49:04.006Z,37.90
2019-06-18T11:51:34.093Z,38.30
2019-06-18T11:54:12.667Z,39.00
2019-06-18T11:56:43.710Z,37.70
2019-06-18T11:59:14.764Z,36.60
2019-06-18T12:01:44.852Z,37.30
2019-06-18T12:04:14.933Z,37.20
2019-06-18T12:06:45.053Z,35.50
2019-06-18T12:09:15.104Z,35.50
2019-06-18T12:11:45.196Z,36.70
2019-06-18T12:14:15.302Z,37.50
2019-06-18T12:16:52.379Z,39.60
2019-06-18T12:19:25.059Z,40.10
2019-06-18T12:21:55.130Z,39.80
2019-06-18T12:24:25.213Z,40.20
2019-06-18T12:26:55.300Z,36.70
2019-06-18T12:29:28.504Z,36.50
2019-06-18T12:31:58.660Z,36.60
2019-06-18T12:34:28.787Z,35.60
2019-06-18T12:36:58.909Z,35.00
2019-06-18T12:39:28.992Z,34.30
2019-06-18T12:41:59.100Z,34.90
2019-06-18T12:44:33.127Z,37.00
2019-06-18T12:47:03.538Z,40.00
2019-06-18T12:49:35.026Z,39.10
2019-06-18T12:52:05.400Z,41.50
2019-06-18T12:54:35.480Z,42.10
2019-06-18T12:57:05.568Z,42.20
2019-06-18T12:59:36.596Z,39.60
2019-06-18T13:02:07.118Z,39.10
2019-06-18T13:04:38.132Z,37.30
2019-06-18T13:07:08.241Z,34.20
2019-06-18T13:09:38.328Z,35.50
2019-06-18T13:12:08.413Z,32.90
2019-06-18T13:14:38.516Z,31.80
2019-06-18T13:17:08.616Z,31.80
2019-06-18T13:19:38.693Z,31.80
2019-06-18T13:22:08.844Z,32.20
2019-06-18T13:24:44.813Z,33.10
2019-06-18T13:27:17.062Z,34.70
2019-06-18T13:29:47.179Z,36.40
2019-06-18T13:32:17.265Z,39.50
2019-06-18T13:34:55.176Z,39.20
2019-06-18T13:37:25.260Z,37.60
2019-06-18T13:40:01.934Z,35.60
2019-06-18T13:42:33.450Z,33.10
2019-06-18T13:45:12.857Z,32.10
2019-06-18T13:47:43.329Z,30.50
2019-06-18T13:50:15.048Z,29.10
2019-06-18T13:52:45.133Z,28.50
2019-06-18T13:55:15.426Z,28.10
2019-06-18T13:57:45.509Z,29.40
2019-06-18T14:00:16.495Z,31.50
2019-06-18T14:02:46.576Z,31.40
2019-06-18T14:05:16.746Z,32.10
2019-06-18T14:07:46.812Z,32.20
2019-06-18T14:10:16.988Z,31.90
2019-06-18T14:12:47.070Z,31.40
2019-06-18T14:15:22.899Z,33.00
2019-06-18T14:17:53.564Z,33.90
2019-06-18T14:20:24.539Z,35.50
2019-06-18T14:22:54.621Z,36.30
2019-06-18T14:25:24.725Z,36.90
2019-06-18T14:27:56.813Z,36.90
2019-06-18T14:30:26.903Z,37.60
2019-06-18T14:32:57.190Z,38.00
2019-06-18T14:35:31.296Z,38.30
2019-06-18T14:37:59.028Z,39.30
2019-06-18T14:40:29.320Z,39.30
2019-06-18T14:42:59.422Z,37.30
2019-06-18T14:45:34.366Z,34.30
2019-06-18T14:48:04.697Z,33.20
2019-06-18T14:50:34.876Z,31.60
2019-06-18T14:53:05.020Z,29.70
2019-06-18T14:55:35.248Z,29.20
2019-06-18T14:58:05.393Z,28.80
2019-06-18T15:00:42.472Z,28.60
2019-06-18T15:03:13.429Z,29.90
2019-06-18T15:05:44.906Z,29.60
2019-06-18T15:08:24.024Z,29.40
2019-06-18T15:11:02.795Z,28.80
2019-06-18T15:13:32.770Z,28.60
2019-06-18T15:16:03.130Z,29.10
2019-06-18T15:18:33.281Z,29.90
2019-06-18T15:21:05.342Z,30.40
2019-06-18T15:23:35.417Z,29.40
2019-06-18T15:26:13.372Z,29.80
2019-06-18T15:28:43.442Z,28.90
2019-06-18T15:31:13.779Z,29.10
2019-06-18T15:33:43.861Z,29.20
2019-06-18T15:36:14.909Z,29.20
2019-06-18T15:38:53.917Z,29.20
2019-06-18T15:41:29.837Z,29.60
2019-06-18T15:43:59.877Z,29.50
2019-06-18T15:46:30.948Z,30.00
2019-06-18T15:49:06.824Z,30.60
2019-06-18T15:51:38.876Z,31.70
2019-06-18T15:54:15.715Z,32.00
2019-06-18T15:56:45.801Z,32.20
2019-06-18T15:59:15.885Z,32.00
2019-06-18T16:01:45.974Z,31.30
2019-06-18T16:04:16.071Z,31.40
2019-06-18T16:06:46.812Z,30.50
2019-06-18T16:09:16.945Z,31.20
2019-06-18T16:11:48.067Z,31.60
2019-06-18T16:14:18.153Z,31.50
2019-06-18T16:16:48.305Z,31.40
2019-06-18T16:19:18.409Z,32.40
2019-06-18T16:21:48.580Z,33.40
2019-06-18T16:24:18.710Z,34.40
2019-06-18T16:26:48.790Z,34.80
2019-06-18T16:29:18.870Z,35.70
2019-06-18T16:31:48.954Z,36.40
2019-06-18T16:34:19.037Z,38.20
2019-06-18T16:36:49.163Z,37.00
2019-06-18T16:39:35.296Z,37.90
2019-06-18T16:42:05.559Z,38.00
2019-06-18T16:44:35.639Z,37.30
2019-06-18T16:47:05.898Z,37.50
2019-06-18T16:49:35.973Z,37.80
2019-06-18T16:52:06.062Z,37.90
2019-06-18T16:54:37.129Z,37.60
2019-06-18T16:57:07.206Z,37.90
2019-06-18T16:59:37.284Z,36.70
2019-06-18T17:02:07.388Z,36.70
2019-06-18T17:04:46.521Z,36.60
2019-06-18T17:07:16.593Z,36.10
2019-06-18T17:09:47.673Z,35.40
2019-06-18T17:12:18.701Z,36.20
2019-06-18T17:14:53.007Z,35.20
2019-06-18T17:17:23.214Z,34.80
2019-06-18T17:19:53.577Z,35.70
2019-06-18T17:22:32.145Z,37.00
2019-06-18T17:24:55.493Z,36.50
2019-06-18T17:27:26.369Z,36.10
2019-06-18T17:29:56.453Z,37.30
2019-06-18T17:32:26.536Z,38.40
2019-06-18T17:34:59.601Z,37.60
2019-06-18T17:37:32.794Z,38.20
2019-06-18T17:40:03.135Z,40.20
2019-06-18T17:42:33.177Z,39.60
2019-06-18T17:45:03.505Z,41.00
2019-06-18T17:47:34.500Z,42.60
2019-06-18T17:50:07.961Z,43.20
2019-06-18T17:52:38.052Z,44.10
2019-06-18T17:55:12.688Z,43.60
2019-06-18T17:57:48.397Z,43.30
2019-06-18T18:00:23.703Z,43.60
2019-06-18T18:02:56.594Z,44.50
2019-06-18T18:05:26.767Z,44.60
2019-06-18T18:07:56.833Z,45.70
2019-06-18T18:10:26.938Z,45.90
2019-06-18T18:12:59.957Z,46.30
2019-06-18T18:15:33.913Z,47.10
2019-06-18T18:18:05.313Z,49.20
2019-06-18T18:20:35.439Z,49.50
2019-06-18T18:23:06.477Z,50.30
2019-06-18T18:25:38.571Z,51.50
2019-06-18T18:28:08.641Z,51.70
2019-06-18T18:30:42.757Z,52.00
2019-06-18T18:33:12.560Z,52.40
2019-06-18T18:35:44.551Z,54.60
2019-06-18T18:38:14.640Z,55.50
2019-06-18T18:40:44.713Z,55.90
2019-06-18T18:43:14.809Z,55.90
2019-06-18T18:45:46.877Z,56.10
2019-06-18T18:48:16.956Z,56.60
2019-06-18T18:50:47.058Z,57.60
2019-06-18T18:53:17.155Z,57.90
2019-06-18T18:55:49.367Z,58.20
2019-06-18T18:58:23.997Z,58.50
2019-06-18T19:00:56.634Z,59.40
2019-06-18T19:03:26.698Z,59.60
2019-06-18T19:05:56.805Z,59.90
2019-06-18T19:08:26.899Z,60.10
2019-06-18T19:10:56.998Z,60.80
2019-06-18T19:13:27.128Z,62.50
2019-06-18T19:15:57.233Z,61.90
2019-06-18T19:18:27.309Z,62.60
2019-06-18T19:20:57.393Z,63.00
2019-06-18T19:23:27.474Z,63.10
2019-06-18T19:25:57.557Z,63.90
2019-06-18T19:28:28.537Z,65.40
2019-06-18T19:30:58.706Z,67.70
2019-06-18T19:33:28.878Z,71.40
2019-06-18T19:35:59.849Z,75.90
2019-06-18T19:38:32.177Z,81.30
2019-06-18T19:41:02.623Z,82.20
2019-06-18T19:43:34.582Z,82.90
2019-06-18T19:46:04.674Z,87.00
2019-06-18T19:48:34.763Z,87.60
2019-06-18T19:51:04.866Z,85.90
2019-06-18T19:53:34.936Z,82.90
2019-06-18T19:56:07.720Z,85.50
2019-06-18T19:58:38.690Z,84.20
2019-06-18T20:01:08.772Z,82.80
2019-06-18T20:03:38.882Z,84.30
2019-06-18T20:06:08.966Z,85.30
2019-06-18T20:08:39.114Z,86.90
2019-06-18T20:11:09.191Z,89.00
2019-06-18T20:13:39.289Z,92.50
2019-06-18T20:16:09.367Z,94.40
2019-06-18T20:18:39.456Z,93.80
2019-06-18T20:21:09.557Z,91.40
2019-06-18T20:23:40.561Z,90.50
2019-06-18T20:26:12.957Z,89.70
2019-06-18T20:28:42.705Z,90.80
2019-06-18T20:31:13.595Z,95.50
2019-06-18T20:33:44.419Z,97.60
2019-06-18T20:36:23.314Z,99.80
2019-06-18T20:38:57.051Z,99.90
2019-06-18T20:41:27.154Z,99.90
2019-06-18T20:43:58.193Z,99.90
2019-06-18T20:46:29.250Z,99.90
2019-06-18T20:48:59.355Z,99.90
2019-06-18T20:51:29.438Z,99.90
2019-06-18T20:54:05.514Z,99.90
2019-06-18T20:56:35.602Z,99.90
2019-06-18T20:59:05.766Z,99.90
2019-06-18T21:01:35.855Z,99.90
2019-06-18T21:04:06.142Z,99.90
2019-06-18T21:06:36.237Z,99.90
2019-06-18T21:09:09.747Z,99.90
2019-06-18T21:11:39.818Z,99.90
2019-06-18T21:14:12.307Z,99.90
2019-06-18T21:16:44.973Z,99.90
2019-06-18T21:19:15.243Z,99.90
2019-06-18T21:21:45.311Z,99.90
2019-06-18T21:24:15.397Z,99.90
2019-06-18T21:26:45.481Z,99.90
2019-06-18T21:29:17.062Z,99.90
2019-06-18T21:31:53.437Z,99.90
2019-06-18T21:34:26.085Z,99.90
2019-06-18T21:36:56.169Z,99.90
2019-06-18T21:39:28.174Z,99.90
2019-06-18T21:41:58.250Z,99.90
2019-06-18T21:44:34.126Z,99.90
2019-06-18T21:47:04.210Z,99.90
2019-06-18T21:49:40.204Z,99.90
2019-06-18T21:52:10.287Z,99.90
2019-06-18T21:54:44.002Z,99.90
2019-06-18T21:57:23.208Z,99.90
2019-06-18T21:59:53.250Z,99.90
2019-06-18T22:02:23.575Z,99.90
2019-06-18T22:04:53.713Z,99.90
2019-06-18T22:07:23.743Z,99.90
2019-06-18T22:09:53.837Z,99.90
2019-06-18T22:12:24.822Z,99.90
2019-06-18T22:14:56.859Z,99.90
2019-06-18T22:17:27.007Z,99.90
2019-06-18T22:19:57.589Z,99.90
2019-06-18T22:22:34.493Z,99.90
2019-06-18T22:25:12.437Z,99.90
2019-06-18T22:27:43.117Z,99.90
2019-06-18T22:30:13.793Z,99.90
2019-06-18T22:32:44.506Z,99.90
2019-06-18T22:35:19.248Z,99.90
2019-06-18T22:37:49.338Z,99.90
2019-06-18T22:40:24.496Z,99.90
2019-06-18T22:42:54.579Z,99.90
2019-06-18T22:45:27.368Z,99.90
2019-06-18T22:47:57.454Z,99.90
2019-06-18T22:50:27.523Z,99.90
2019-06-18T22:52:58.538Z,99.90
2019-06-18T22:55:29.258Z,99.90
2019-06-18T22:57:59.551Z,99.90
2019-06-18T23:00:29.694Z,99.90
2019-06-18T23:03:02.366Z,99.90
2019-06-18T23:05:32.618Z,99.90
2019-06-18T23:08:02.987Z,99.90
2019-06-18T23:10:33.568Z,99.90
2019-06-18T23:13:04.117Z,99.90
2019-06-18T23:15:34.283Z,99.90
2019-06-18T23:18:06.380Z,99.90
2019-06-18T23:20:44.395Z,99.90
2019-06-18T23:23:14.622Z,99.90
2019-06-18T23:25:47.503Z,99.90
2019-06-18T23:28:18.618Z,99.90
2019-06-18T23:30:49.214Z,99.90
2019-06-18T23:33:19.304Z,99.90
2019-06-18T23:35:49.386Z,99.90
2019-06-18T23:38:19.470Z,99.90
2019-06-18T23:40:49.563Z,99.90
2019-06-18T23:43:22.051Z,99.90
2019-06-18T23:45:52.405Z,99.90
2019-06-18T23:48:23.586Z,99.90
2019-06-18T23:50:53.670Z,99.90
2019-06-18T23:53:23.830Z,99.90
2019-06-18T23:55:53.911Z,99.90
2019-06-18T23:58:24.003Z,99.90
